Pingwu, China
Current Conditions -  °F | °C
As of 3:00 PM on Friday 24 Oct 2014 (Local Time) from ZUUU Reporting Station
Haze Haze  
Wind Chill: 68°   Ceiling: Unl
Heat Index: 68°   Visibility: 2.5mi
Dew Point: 59°   Wind: 2mph
Humidity: 73%   Direction: 340°NNW
Pressure: 30"   Gusts: NA
Location:  32.42°N, 104.52°E
Report Text: ZUUU 240700Z 34001MPS 4000 HZ SCT026 20/15 Q1016 NOSIG
Loading
Personal Weather Stations






























Interactive Weather Map
Tropical Storm Tracking
New forecast layout! Learn more

10-Day Weather Forecast

Advertisements
Track Severe Weather on mobile